EDDNLOWI

Guest
Details From EDDN - Nurnberg
To LOWI - Innsbruck Kranebitten
Flight Number -
Tags Routegen
Created
Modified
Stats Distance 135 nm / 250 km
Max Altitude 0 ft / 0 m
Waypoints 2
Social Downloads 3
Likes 0
Share VATSIM

Download

Looking for another format? Having issues loading an existing format? Contact us
Advertisement - Login to hide

Notes

None

Route

EDDN LOWI

ID Type Via Altitude (ft/m) Position (lat/lon) Dist (leg/tot) Name
O EDDN APT - 0 / 0 49.50055 / 11.05918 - / 0 nm
O LOWI APT - 0 / 0 47.25883 / 11.33091 135 / 135 nm

Altitude Profile

Advertisement - Login to hide

EDDN

Details ICAO EDDN (NUE)
Name Nuernberg Airport
Region Germany - Civil
Timezone Europe/Berlin (UTC+2.0)
Stats Elevation 1,043 ft / 318 m (AMSL)
Location 49.498700° 11.077600°
Runways 1
Magnetic Variation 3.241° E

METAR

EDDN 190020Z 34002KT CAVOK 04/02 Q1026

Decode

TAF

TAF EDDN 182300Z 1900/1924 VRB03KT CAVOK

Decode

Departure Runways

ID Width Length Bearing (true/mag) Surface Threshold Overrun Markings Lighting
10 148 ft / 45 m 8,835 ft / 2,693 m 98.58° / 95.34° ASPHALT 0 ft / 0 m 102 ft / 31 m PREC-APP CENTERLINE EDGE THRESHOLD ALSF-I REIL-OMNI
28 148 ft / 45 m 8,835 ft / 2,693 m 278.61° / 275.37° ASPHALT 0 ft / 0 m 108 ft / 33 m PREC-APP CENTERLINE EDGE THRESHOLD ALSF-II TDZ REIL-OMNI

LOWI

Details ICAO LOWI (INN)
Name Innsbruck
Region Austria
Timezone Europe/Vienna (UTC+2.0)
Stats Elevation 1,907 ft / 581 m (AMSL)
Location 47.260800° 11.341500°
Runways 3
Magnetic Variation 3.229° E

METAR

LOWI 182350Z 11004KT 080V150 9999 BKN040 13/06 Q1024 NOSIG

Decode

TAF

TAF LOWI 182315Z 1900/1924 08006KT 9999 BKN040 TX18/1914Z TN10/1905Z BECMG 1908/1911 08012KT SCT050 BECMG 1916/1918 VRB02KT

Decode

Destination Runways

ID Width Length Bearing (true/mag) Surface Threshold Overrun Markings Lighting
08 148 ft / 45 m 6,548 ft / 1,996 m 80.95° / 77.72° ASPHALT 335 ft / 102 m 0 ft / 0 m PREC-APP CENTERLINE EDGE THRESHOLD REIL-OMNI
08C 125 ft / 38 m 3,673 ft / 1,120 m 81.00° / 77.77° GRASS 0 ft / 0 m 0 ft / 0 m NONE
08L 164 ft / 50 m 1,151 ft / 351 m 81.11° / 77.88° GRASS 0 ft / 0 m 0 ft / 0 m NONE
26 148 ft / 45 m 6,548 ft / 1,996 m 260.96° / 257.73° ASPHALT 0 ft / 0 m 0 ft / 0 m PREC-APP CENTERLINE EDGE THRESHOLD ALSF-II REIL-OMNI
26C 125 ft / 38 m 3,673 ft / 1,120 m 261.01° / 257.78° GRASS 0 ft / 0 m 0 ft / 0 m NONE
26R 164 ft / 50 m 1,151 ft / 351 m 261.11° / 257.88° GRASS 0 ft / 0 m 0 ft / 0 m NONE

Approach Navaids

Runway Type Ident Frequency Range Bearing (true/mag) Slope Elevation
26 LOC-LOC OEJ 109.70 MHz 30 nm / 56 km 260.94° / 257.71 ° - 1,905 ft / 581 m (AMSL)
26 DME OEV 111.10 MHz 27 nm / 50 km - - 1,911 ft / 582 m (AMSL)
26 OM OM - - 105.00° / 101.77 ° - 6,726 ft / 2,050 m (AMSL)
26 LOC-ILS OEV 111.10 MHz 27 nm / 50 km 261.03° / 257.80 ° - 1,906 ft / 581 m (AMSL)
26 MM MM - - 256.00° / 252.77 ° - 1,906 ft / 581 m (AMSL)
26 DME OEJ 109.70 MHz 30 nm / 56 km - - 1,906 ft / 581 m (AMSL)

Popular Alternatives